createdAt,value
2023-05-17T00:00:12.802Z,101300.00
2023-05-17T00:02:40.784Z,101302.00
2023-05-17T00:05:11.619Z,101300.00
2023-05-17T00:07:39.573Z,101297.00
2023-05-17T00:10:08.794Z,101283.00
2023-05-17T00:12:38.062Z,101292.00
2023-05-17T00:15:07.123Z,101281.00
2023-05-17T00:17:37.316Z,101290.00
2023-05-17T00:20:06.547Z,101299.00
2023-05-17T00:22:34.451Z,101295.00
2023-05-17T00:25:02.387Z,101282.00
2023-05-17T00:27:30.274Z,101290.00
2023-05-17T00:29:59.497Z,101284.00
2023-05-17T00:32:27.416Z,101303.00
2023-05-17T00:34:55.428Z,101298.00
2023-05-17T00:37:23.218Z,101297.00
2023-05-17T00:39:51.071Z,101293.00
2023-05-17T00:42:18.949Z,101286.00
2023-05-17T00:44:46.980Z,101296.00
2023-05-17T00:47:16.331Z,101305.00
2023-05-17T00:49:45.707Z,101309.00
2023-05-17T00:52:13.776Z,101307.00
2023-05-17T00:54:41.803Z,101299.00
2023-05-17T00:57:10.510Z,101303.00
2023-05-17T00:59:39.328Z,101309.00
2023-05-17T01:02:10.072Z,101293.00
2023-05-17T01:04:40.249Z,101307.00
2023-05-17T01:07:09.866Z,101308.00
2023-05-17T01:09:38.411Z,101296.00
2023-05-17T01:12:16.605Z,101314.00
2023-05-17T01:15:03.423Z,101319.00
2023-05-17T01:17:37.506Z,101313.00
2023-05-17T01:20:15.728Z,101303.00
2023-05-17T01:22:47.127Z,101313.00
2023-05-17T01:25:30.521Z,101309.00
2023-05-17T01:28:02.259Z,101303.00
2023-05-17T01:30:31.086Z,101309.00
2023-05-17T01:33:00.317Z,101314.00
2023-05-17T01:35:28.629Z,101306.00
2023-05-17T01:37:56.923Z,101297.00
2023-05-17T01:40:25.809Z,101318.00
2023-05-17T01:42:57.492Z,101310.00
2023-05-17T01:45:32.826Z,101298.00
2023-05-17T01:48:13.401Z,101304.00
2023-05-17T01:50:42.980Z,101323.00
2023-05-17T01:53:19.023Z,101324.00
2023-05-17T01:55:51.682Z,101328.00
2023-05-17T01:58:22.945Z,101326.00
2023-05-17T02:00:55.480Z,101324.00
2023-05-17T02:03:23.760Z,101327.00
2023-05-17T02:05:51.688Z,101342.00
2023-05-17T02:08:19.588Z,101331.00
2023-05-17T02:10:47.463Z,101310.00
2023-05-17T02:13:15.356Z,101339.00
2023-05-17T02:15:43.359Z,101324.00
2023-05-17T02:18:13.164Z,101341.00
2023-05-17T02:20:41.442Z,101335.00
2023-05-17T02:23:09.472Z,101323.00
2023-05-17T02:25:37.415Z,101333.00
2023-05-17T02:28:05.694Z,101336.00
2023-05-17T02:30:33.529Z,101335.00
2023-05-17T02:33:01.523Z,101344.00
2023-05-17T02:35:31.162Z,101318.00
2023-05-17T02:37:59.141Z,101342.00
2023-05-17T02:40:27.111Z,101327.00
2023-05-17T02:42:55.061Z,101336.00
2023-05-17T02:45:23.015Z,101328.00
2023-05-17T02:47:51.222Z,101331.00
2023-05-17T02:50:19.160Z,101355.00
2023-05-17T02:52:48.369Z,101357.00
2023-05-17T02:55:16.481Z,101352.00
2023-05-17T02:57:44.321Z,101357.00
2023-05-17T03:00:12.745Z,101371.00
2023-05-17T03:02:40.586Z,101367.00
2023-05-17T03:05:10.031Z,101358.00
2023-05-17T03:07:38.015Z,101362.00
2023-05-17T03:10:08.191Z,101378.00
2023-05-17T03:12:36.005Z,101380.00
2023-05-17T03:15:04.243Z,101373.00
2023-05-17T03:17:32.210Z,101374.00
2023-05-17T03:20:00.176Z,101372.00
2023-05-17T03:22:28.217Z,101371.00
2023-05-17T03:24:56.286Z,101374.00
2023-05-17T03:27:25.708Z,101389.00
2023-05-17T03:29:53.586Z,101395.00
2023-05-17T03:32:21.406Z,101382.00
2023-05-17T03:34:49.410Z,101400.00
2023-05-17T03:37:17.346Z,101388.00
2023-05-17T03:39:45.288Z,101400.00
2023-05-17T03:42:13.226Z,101400.00
2023-05-17T03:44:42.984Z,101392.00
2023-05-17T03:47:10.885Z,101410.00
2023-05-17T03:49:38.743Z,101413.00
2023-05-17T03:52:06.962Z,101410.00
2023-05-17T03:54:34.986Z,101417.00
2023-05-17T03:57:03.978Z,101418.00
2023-05-17T03:59:31.792Z,101400.00
2023-05-17T04:02:01.622Z,101420.00
2023-05-17T04:04:29.561Z,101428.00
2023-05-17T04:06:57.899Z,101429.00
2023-05-17T04:09:25.776Z,101436.00
2023-05-17T04:11:53.655Z,101433.00
2023-05-17T04:14:22.409Z,101439.00
2023-05-17T04:16:50.384Z,101447.00
2023-05-17T04:19:19.599Z,101443.00
2023-05-17T04:21:47.589Z,101443.00
2023-05-17T04:24:15.421Z,101446.00
2023-05-17T04:26:44.477Z,101450.00
2023-05-17T04:29:12.279Z,101443.00
2023-05-17T04:31:40.299Z,101464.00
2023-05-17T04:34:08.262Z,101464.00
2023-05-17T04:36:37.458Z,101450.00
2023-05-17T04:39:06.037Z,101470.00
2023-05-17T04:41:33.873Z,101468.00
2023-05-17T04:44:02.160Z,101481.00
2023-05-17T04:46:30.055Z,101478.00
2023-05-17T04:48:58.644Z,101494.00
2023-05-17T04:51:28.063Z,101498.00
2023-05-17T04:53:58.673Z,101492.00
2023-05-17T04:56:26.685Z,101492.00
2023-05-17T04:58:54.601Z,101496.00
2023-05-17T05:01:23.132Z,101499.00
2023-05-17T05:03:51.116Z,101511.00
2023-05-17T05:06:19.984Z,101510.00
2023-05-17T05:08:47.887Z,101509.00
2023-05-17T05:11:17.994Z,101505.00
2023-05-17T05:13:45.814Z,101524.00
2023-05-17T05:16:13.723Z,101521.00
2023-05-17T05:18:41.696Z,101523.00
2023-05-17T05:21:09.988Z,101517.00
2023-05-17T05:23:38.038Z,101527.00
2023-05-17T05:26:06.086Z,101525.00
2023-05-17T05:28:35.381Z,101521.00
2023-05-17T05:31:03.624Z,101534.00
2023-05-17T05:33:32.013Z,101545.00
2023-05-17T05:35:59.997Z,101543.00
2023-05-17T05:38:28.020Z,101543.00
2023-05-17T05:40:55.850Z,101543.00
2023-05-17T05:43:23.693Z,101545.00
2023-05-17T05:45:53.027Z,101551.00
2023-05-17T05:48:20.995Z,101552.00
2023-05-17T05:50:48.847Z,101550.00
2023-05-17T05:53:19.436Z,101545.00
2023-05-17T05:55:48.012Z,101561.00
2023-05-17T05:58:15.898Z,101562.00
2023-05-17T06:00:43.761Z,101564.00
2023-05-17T06:03:13.073Z,101562.00
2023-05-17T06:05:41.108Z,101565.00
2023-05-17T06:08:09.312Z,101564.00
2023-05-17T06:10:37.218Z,101573.00
2023-05-17T06:13:05.022Z,101568.00
2023-05-17T06:15:33.268Z,101565.00
2023-05-17T06:18:01.439Z,101567.00
2023-05-17T06:20:30.794Z,101574.00
2023-05-17T06:22:58.918Z,101569.00
2023-05-17T06:25:27.018Z,101580.00
2023-05-17T06:27:54.828Z,101582.00
2023-05-17T06:30:23.006Z,101591.00
2023-05-17T06:32:51.086Z,101601.00
2023-05-17T06:35:19.053Z,101600.00
2023-05-17T06:37:48.284Z,101590.00
2023-05-17T06:40:17.106Z,101605.00
2023-05-17T06:42:45.653Z,101596.00
2023-05-17T06:45:13.843Z,101601.00
2023-05-17T06:47:41.879Z,101599.00
2023-05-17T06:50:10.816Z,101603.00
2023-05-17T06:52:38.777Z,101597.00
2023-05-17T06:55:09.344Z,101616.00
2023-05-17T06:57:37.618Z,101609.00
2023-05-17T07:00:11.158Z,101612.00
2023-05-17T07:02:39.191Z,101625.00
2023-05-17T07:05:08.104Z,101624.00
2023-05-17T07:07:35.991Z,101627.00
2023-05-17T07:10:03.998Z,101625.00
2023-05-17T07:12:34.897Z,101617.00
2023-05-17T07:15:02.796Z,101629.00
2023-05-17T07:17:31.070Z,101635.00
2023-05-17T07:19:59.317Z,101647.00
2023-05-17T07:22:27.990Z,101655.00
2023-05-17T07:24:55.903Z,101660.00
2023-05-17T07:27:23.768Z,101656.00
2023-05-17T07:29:53.017Z,101663.00
2023-05-17T07:32:20.998Z,101677.00
2023-05-17T07:34:48.997Z,101660.00
2023-05-17T07:37:16.852Z,101668.00
2023-05-17T07:39:44.701Z,101664.00
2023-05-17T07:42:12.541Z,101663.00
2023-05-17T07:44:40.529Z,101685.00
2023-05-17T07:47:09.933Z,101685.00
2023-05-17T07:49:38.040Z,101683.00
2023-05-17T07:52:06.440Z,101684.00
2023-05-17T07:54:34.579Z,101700.00
2023-05-17T07:57:02.466Z,101687.00
2023-05-17T07:59:30.314Z,101704.00
2023-05-17T08:01:58.520Z,101702.00
2023-05-17T08:04:27.907Z,101698.00
2023-05-17T08:06:55.949Z,101713.00
2023-05-17T08:09:23.780Z,101715.00
2023-05-17T08:11:51.801Z,101717.00
2023-05-17T08:14:19.920Z,101722.00
2023-05-17T08:16:49.020Z,101720.00
2023-05-17T08:19:16.964Z,101717.00
2023-05-17T08:21:46.704Z,101720.00
2023-05-17T08:24:14.592Z,101727.00
2023-05-17T08:26:42.410Z,101722.00
2023-05-17T08:29:10.265Z,101723.00
2023-05-17T08:31:38.185Z,101733.00
2023-05-17T08:34:06.599Z,101726.00
2023-05-17T08:36:34.816Z,101723.00
2023-05-17T08:39:05.823Z,101725.00
2023-05-17T08:41:56.743Z,101740.00
2023-05-17T08:44:25.043Z,101727.00
2023-05-17T08:46:54.698Z,101732.00
2023-05-17T08:49:25.540Z,101739.00
2023-05-17T08:51:55.392Z,101735.00
2023-05-17T08:54:24.691Z,101718.00
2023-05-17T08:56:55.530Z,101733.00
2023-05-17T08:59:23.719Z,101735.00
2023-05-17T09:01:54.285Z,101722.00
2023-05-17T09:04:22.631Z,101711.00
2023-05-17T09:06:51.651Z,101737.00
2023-05-17T09:09:19.890Z,101730.00
2023-05-17T09:11:49.238Z,101721.00
2023-05-17T09:14:17.882Z,101723.00
2023-05-17T09:16:45.826Z,101733.00
2023-05-17T09:19:18.217Z,101744.00
2023-05-17T09:21:49.284Z,101707.00
2023-05-17T09:24:21.738Z,101743.00
2023-05-17T09:26:52.990Z,101731.00
2023-05-17T09:29:20.776Z,101730.00
2023-05-17T09:31:48.711Z,101728.00
2023-05-17T09:34:19.582Z,101727.00
2023-05-17T09:36:48.045Z,101722.00
2023-05-17T09:39:16.499Z,101732.00
2023-05-17T09:41:47.028Z,101732.00
2023-05-17T09:44:18.020Z,101738.00
2023-05-17T09:46:47.247Z,101726.00
2023-05-17T09:49:15.534Z,101738.00
2023-05-17T09:51:44.908Z,101739.00
2023-05-17T09:54:13.305Z,101735.00
2023-05-17T09:56:41.624Z,101737.00
2023-05-17T09:59:13.618Z,101720.00
2023-05-17T10:01:45.486Z,101713.00
2023-05-17T10:04:14.401Z,101728.00
2023-05-17T10:06:49.641Z,101732.00
2023-05-17T10:09:22.543Z,101719.00
2023-05-17T10:11:53.488Z,101726.00
2023-05-17T10:14:28.166Z,101736.00
2023-05-17T10:16:58.200Z,101722.00
2023-05-17T10:19:26.963Z,101737.00
2023-05-17T10:22:00.262Z,101740.00
2023-05-17T10:24:37.062Z,101737.00
2023-05-17T10:27:06.517Z,101744.00
2023-05-17T10:29:35.839Z,101732.00
2023-05-17T10:32:09.378Z,101727.00
2023-05-17T10:34:38.711Z,101740.00
2023-05-17T10:37:07.744Z,101730.00
2023-05-17T10:39:38.352Z,101740.00
2023-05-17T10:44:40.638Z,101724.00
2023-05-17T10:47:09.898Z,101738.00
2023-05-17T10:49:40.048Z,101748.00
2023-05-17T10:52:15.127Z,101736.00
2023-05-17T10:54:44.280Z,101727.00
2023-05-17T10:57:22.014Z,101740.00
2023-05-17T11:00:00.188Z,101736.00
2023-05-17T11:02:32.223Z,101740.00
2023-05-17T11:05:00.636Z,101744.00
2023-05-17T11:07:32.777Z,101745.00
2023-05-17T11:10:07.145Z,101745.00
2023-05-17T11:12:38.431Z,101727.00
2023-05-17T11:15:10.633Z,101736.00
2023-05-17T11:17:51.037Z,101738.00
2023-05-17T11:20:33.702Z,101740.00
2023-05-17T11:23:04.680Z,101742.00
2023-05-17T11:25:35.734Z,101745.00
2023-05-17T11:28:10.055Z,101734.00
2023-05-17T11:30:43.518Z,101729.00
2023-05-17T11:33:25.379Z,101739.00
2023-05-17T11:36:06.254Z,101736.00
2023-05-17T11:38:34.532Z,101748.00
2023-05-17T11:41:25.941Z,101759.00
2023-05-17T11:43:55.458Z,101744.00
2023-05-17T11:46:24.849Z,101749.00
2023-05-17T11:48:54.871Z,101743.00
2023-05-17T11:51:25.178Z,101750.00
2023-05-17T11:53:55.907Z,101767.00
2023-05-17T11:56:35.705Z,101756.00
2023-05-17T11:59:10.840Z,101761.00
2023-05-17T12:01:46.364Z,101754.00
2023-05-17T12:04:24.072Z,101760.00
2023-05-17T12:06:52.211Z,101766.00
2023-05-17T12:09:22.120Z,101768.00
2023-05-17T12:11:50.187Z,101770.00
2023-05-17T12:14:18.550Z,101764.00
2023-05-17T12:16:49.139Z,101778.00
2023-05-17T12:19:23.514Z,101778.00
2023-05-17T12:21:52.015Z,101775.00
2023-05-17T12:24:19.956Z,101770.00
2023-05-17T12:26:48.690Z,101785.00
2023-05-17T12:29:23.129Z,101788.00
2023-05-17T12:31:53.272Z,101789.00
2023-05-17T12:34:23.523Z,101787.00
2023-05-17T12:36:52.683Z,101785.00
2023-05-17T12:39:23.873Z,101796.00
2023-05-17T12:41:53.394Z,101794.00
2023-05-17T12:44:21.857Z,101792.00
2023-05-17T12:46:54.265Z,101791.00
2023-05-17T12:49:23.585Z,101787.00
2023-05-17T12:51:51.854Z,101798.00
2023-05-17T12:54:29.690Z,101790.00
2023-05-17T12:56:57.966Z,101790.00
2023-05-17T12:59:26.569Z,101792.00
2023-05-17T13:01:56.999Z,101794.00
2023-05-17T13:04:32.982Z,101795.00
2023-05-17T13:07:02.540Z,101803.00
2023-05-17T13:09:32.172Z,101803.00
2023-05-17T13:12:01.131Z,101810.00
2023-05-17T13:14:41.974Z,101799.00
2023-05-17T13:17:13.153Z,101793.00
2023-05-17T13:19:42.567Z,101793.00
2023-05-17T13:22:11.379Z,101791.00
2023-05-17T13:24:40.280Z,101795.00
2023-05-17T13:27:08.906Z,101786.00
2023-05-17T13:29:40.585Z,101796.00
2023-05-17T13:32:10.221Z,101782.00
2023-05-17T13:34:38.375Z,101785.00
2023-05-17T13:37:11.536Z,101796.00
2023-05-17T13:39:41.377Z,101803.00
2023-05-17T13:42:09.699Z,101784.00
2023-05-17T13:44:38.596Z,101787.00
2023-05-17T13:47:07.245Z,101791.00
2023-05-17T13:49:35.204Z,101775.00
2023-05-17T13:52:03.563Z,101782.00
2023-05-17T13:54:32.789Z,101772.00
2023-05-17T13:57:00.599Z,101781.00
2023-05-17T13:59:29.049Z,101786.00
2023-05-17T14:01:57.736Z,101784.00
2023-05-17T14:04:26.580Z,101800.00
2023-05-17T14:06:55.273Z,101775.00
2023-05-17T14:09:23.323Z,101774.00
2023-05-17T14:11:52.846Z,101775.00
2023-05-17T14:14:20.825Z,101795.00
2023-05-17T14:16:48.695Z,101788.00
2023-05-17T14:19:16.594Z,101801.00
2023-05-17T14:21:44.578Z,101795.00
2023-05-17T14:24:12.463Z,101780.00
2023-05-17T14:26:40.535Z,101786.00
2023-05-17T14:29:09.815Z,101787.00
2023-05-17T14:31:37.728Z,101791.00
2023-05-17T14:34:05.823Z,101783.00
2023-05-17T14:36:36.208Z,101781.00
2023-05-17T14:39:04.168Z,101788.00
2023-05-17T14:41:32.100Z,101771.00
2023-05-17T14:43:59.977Z,101776.00
2023-05-17T14:46:29.223Z,101792.00
2023-05-17T14:48:57.272Z,101804.00
2023-05-17T14:51:25.224Z,101797.00
2023-05-17T14:53:54.312Z,101796.00
2023-05-17T14:56:23.054Z,101793.00
2023-05-17T14:58:51.206Z,101787.00
2023-05-17T15:01:20.079Z,101795.00
2023-05-17T15:03:49.414Z,101792.00
2023-05-17T15:06:17.284Z,101793.00
2023-05-17T15:08:45.703Z,101797.00
2023-05-17T15:11:14.205Z,101795.00
2023-05-17T15:13:42.646Z,101804.00
2023-05-17T15:16:10.585Z,101795.00
2023-05-17T15:18:38.956Z,101799.00
2023-05-17T15:21:08.597Z,101798.00
2023-05-17T15:23:37.048Z,101798.00
2023-05-17T15:26:04.846Z,101807.00
2023-05-17T15:28:32.697Z,101801.00
2023-05-17T15:31:01.777Z,101811.00
2023-05-17T15:33:30.807Z,101816.00
2023-05-17T15:35:58.756Z,101817.00
2023-05-17T15:38:28.082Z,101823.00
2023-05-17T15:41:05.070Z,101792.00
2023-05-17T15:43:33.951Z,101795.00
2023-05-17T15:46:02.358Z,101808.00
2023-05-17T15:48:30.517Z,101801.00
2023-05-17T15:50:59.313Z,101807.00
2023-05-17T15:53:30.170Z,101806.00
2023-05-17T15:55:59.856Z,101809.00
2023-05-17T15:58:28.571Z,101813.00
2023-05-17T16:00:56.574Z,101811.00
2023-05-17T16:03:25.038Z,101812.00
2023-05-17T16:05:52.911Z,101820.00
2023-05-17T16:08:21.307Z,101829.00
2023-05-17T16:10:50.593Z,101817.00
2023-05-17T16:13:18.388Z,101816.00
2023-05-17T16:15:46.448Z,101824.00
2023-05-17T16:18:15.352Z,101822.00
2023-05-17T16:20:43.512Z,101827.00
2023-05-17T16:23:11.809Z,101832.00
2023-05-17T16:25:40.086Z,101831.00
2023-05-17T16:28:11.814Z,101839.00
2023-05-17T16:30:39.709Z,101836.00
2023-05-17T16:33:09.102Z,101830.00
2023-05-17T16:35:37.129Z,101834.00
2023-05-17T16:38:04.909Z,101840.00
2023-05-17T16:40:33.649Z,101844.00
2023-05-17T16:43:01.525Z,101840.00
2023-05-17T16:45:30.960Z,101847.00
2023-05-17T16:47:59.001Z,101843.00
2023-05-17T16:50:26.891Z,101842.00
2023-05-17T16:52:54.865Z,101837.00
2023-05-17T16:55:22.905Z,101858.00
2023-05-17T16:57:51.385Z,101863.00
2023-05-17T17:00:20.159Z,101857.00
2023-05-17T17:02:49.612Z,101869.00
2023-05-17T17:05:17.727Z,101873.00
2023-05-17T17:07:47.326Z,101878.00
2023-05-17T17:10:15.104Z,101864.00
2023-05-17T17:12:42.918Z,101880.00
2023-05-17T17:15:11.663Z,101886.00
2023-05-17T17:17:39.906Z,101874.00
2023-05-17T17:20:10.557Z,101878.00
2023-05-17T17:22:38.379Z,101885.00
2023-05-17T17:25:07.515Z,101888.00
2023-05-17T17:27:35.599Z,101879.00
2023-05-17T17:30:04.059Z,101886.00
2023-05-17T17:32:32.527Z,101879.00
2023-05-17T17:35:00.492Z,101880.00
2023-05-17T17:37:29.842Z,101886.00
2023-05-17T17:39:57.673Z,101889.00
2023-05-17T17:42:25.681Z,101896.00
2023-05-17T17:44:55.844Z,101890.00
2023-05-17T17:47:23.866Z,101894.00
2023-05-17T17:49:52.559Z,101875.00
2023-05-17T17:52:20.414Z,101892.00
2023-05-17T17:54:49.659Z,101901.00
2023-05-17T17:57:18.870Z,101900.00
2023-05-17T17:59:46.747Z,101897.00
2023-05-17T18:02:14.560Z,101880.00
2023-05-17T18:04:42.557Z,101906.00
2023-05-17T18:07:12.340Z,101895.00
2023-05-17T18:09:40.312Z,101901.00
2023-05-17T18:12:09.956Z,101902.00
2023-05-17T18:14:37.789Z,101898.00
2023-05-17T18:17:08.220Z,101899.00
2023-05-17T18:19:36.318Z,101903.00
2023-05-17T18:22:04.333Z,101895.00
2023-05-17T18:24:32.497Z,101904.00
2023-05-17T18:27:03.086Z,101898.00
2023-05-17T18:29:32.603Z,101906.00
2023-05-17T18:32:01.606Z,101899.00
2023-05-17T18:34:29.808Z,101912.00
2023-05-17T18:36:57.853Z,101907.00
2023-05-17T18:39:27.128Z,101883.00
2023-05-17T18:41:55.297Z,101914.00
2023-05-17T18:44:23.159Z,101908.00
2023-05-17T18:46:54.233Z,101925.00
2023-05-17T18:49:22.265Z,101921.00
2023-05-17T18:51:50.145Z,101917.00
2023-05-17T18:54:19.653Z,101916.00
2023-05-17T18:56:47.674Z,101910.00
2023-05-17T18:59:16.158Z,101908.00
2023-05-17T19:01:44.231Z,101897.00
2023-05-17T19:04:15.066Z,101916.00
2023-05-17T19:06:43.320Z,101897.00
2023-05-17T19:09:11.326Z,101933.00
2023-05-17T19:11:42.321Z,101917.00
2023-05-17T19:14:11.423Z,101929.00
2023-05-17T19:16:39.477Z,101944.00
2023-05-17T19:19:07.815Z,101933.00
2023-05-17T19:21:37.106Z,101947.00
2023-05-17T19:24:05.653Z,101900.00
2023-05-17T19:26:33.513Z,101935.00
2023-05-17T19:29:01.494Z,101939.00
2023-05-17T19:31:29.500Z,101948.00
2023-05-17T19:33:59.250Z,101934.00
2023-05-17T19:36:27.783Z,101951.00
2023-05-17T19:38:57.088Z,101953.00
2023-05-17T19:41:24.944Z,101961.00
2023-05-17T19:43:52.918Z,101959.00
2023-05-17T19:46:20.776Z,101949.00
2023-05-17T19:48:49.332Z,101962.00
2023-05-17T19:51:17.586Z,101958.00
2023-05-17T19:53:53.424Z,101952.00
2023-05-17T19:56:24.148Z,101950.00
2023-05-17T19:58:52.174Z,101966.00
2023-05-17T20:01:22.108Z,101958.00
2023-05-17T20:03:50.068Z,101960.00
2023-05-17T20:06:18.128Z,101965.00
2023-05-17T20:08:46.387Z,101966.00
2023-05-17T20:11:15.176Z,101938.00
2023-05-17T20:13:44.395Z,101953.00
2023-05-17T20:16:13.545Z,101969.00
2023-05-17T20:18:43.434Z,101967.00
2023-05-17T20:21:12.766Z,101932.00
2023-05-17T20:23:41.483Z,101967.00
2023-05-17T20:26:16.027Z,101953.00
2023-05-17T20:28:45.835Z,101965.00
2023-05-17T20:31:14.529Z,101968.00
2023-05-17T20:33:44.150Z,101982.00
2023-05-17T20:36:14.626Z,101960.00
2023-05-17T20:38:43.923Z,101966.00
2023-05-17T20:41:13.116Z,101982.00
2023-05-17T20:43:41.146Z,101980.00
2023-05-17T20:46:13.310Z,101980.00
2023-05-17T20:48:43.195Z,101985.00
2023-05-17T20:51:11.517Z,101968.00
2023-05-17T20:53:40.154Z,101998.00
2023-05-17T20:56:08.303Z,101988.00
2023-05-17T20:58:36.554Z,101990.00
2023-05-17T21:01:05.794Z,101983.00
2023-05-17T21:03:36.028Z,101998.00
2023-05-17T21:06:05.351Z,101993.00
2023-05-17T21:08:34.138Z,101987.00
2023-05-17T21:11:02.054Z,101998.00
2023-05-17T21:13:30.123Z,101990.00
2023-05-17T21:15:58.327Z,101983.00
2023-05-17T21:18:26.316Z,101994.00
2023-05-17T21:20:56.225Z,102003.00
2023-05-17T21:23:24.188Z,102000.00
2023-05-17T21:25:52.155Z,101985.00
2023-05-17T21:28:20.125Z,102002.00
2023-05-17T21:30:48.004Z,101997.00
2023-05-17T21:33:15.839Z,101991.00
2023-05-17T21:35:43.710Z,102006.00
2023-05-17T21:38:13.167Z,102003.00
2023-05-17T21:40:41.680Z,101995.00
2023-05-17T21:43:09.926Z,102011.00
2023-05-17T21:45:38.293Z,101994.00
2023-05-17T21:48:06.716Z,102007.00
2023-05-17T21:50:34.856Z,101998.00
2023-05-17T21:53:02.883Z,102005.00
2023-05-17T21:55:45.766Z,102010.00
2023-05-17T21:58:21.321Z,101996.00
2023-05-17T22:00:49.275Z,101987.00
2023-05-17T22:03:17.415Z,101997.00
2023-05-17T22:05:45.635Z,102007.00
2023-05-17T22:08:13.551Z,102008.00
2023-05-17T22:10:43.565Z,102005.00
2023-05-17T22:13:12.497Z,102014.00
2023-05-17T22:15:41.621Z,102006.00
2023-05-17T22:18:12.464Z,102033.00
2023-05-17T22:20:40.802Z,102024.00
2023-05-17T22:23:08.838Z,102000.00
2023-05-17T22:25:36.779Z,102015.00
2023-05-17T22:28:06.488Z,102020.00
2023-05-17T22:30:34.575Z,102031.00
2023-05-17T22:33:03.145Z,102037.00
2023-05-17T22:35:31.199Z,102011.00
2023-05-17T22:37:59.148Z,102030.00
2023-05-17T22:40:27.196Z,102008.00
2023-05-17T22:42:56.156Z,102025.00
2023-05-17T22:45:33.079Z,102029.00
2023-05-17T22:48:03.032Z,102016.00
2023-05-17T22:50:34.685Z,102013.00
2023-05-17T22:53:02.660Z,102008.00
2023-05-17T22:55:31.096Z,102034.00
2023-05-17T22:57:59.504Z,102032.00
2023-05-17T23:00:28.928Z,102020.00
2023-05-17T23:02:56.996Z,102011.00
2023-05-17T23:05:24.941Z,102027.00
2023-05-17T23:07:53.466Z,102008.00
2023-05-17T23:10:21.619Z,102026.00
2023-05-17T23:12:51.548Z,102022.00
2023-05-17T23:15:20.779Z,102022.00
2023-05-17T23:17:50.931Z,102018.00
2023-05-17T23:20:19.884Z,102027.00
2023-05-17T23:22:48.680Z,102015.00
2023-05-17T23:25:16.821Z,102022.00
2023-05-17T23:27:44.889Z,102019.00
2023-05-17T23:30:13.377Z,102019.00
2023-05-17T23:32:42.393Z,102025.00
2023-05-17T23:35:11.819Z,102016.00
2023-05-17T23:37:40.457Z,102026.00
2023-05-17T23:40:10.450Z,101997.00
2023-05-17T23:42:38.453Z,102009.00
2023-05-17T23:45:07.568Z,102017.00
2023-05-17T23:47:35.601Z,102025.00
2023-05-17T23:50:04.994Z,102020.00
2023-05-17T23:52:34.335Z,102006.00
2023-05-17T23:55:02.293Z,102013.00
2023-05-17T23:57:30.487Z,102009.00
2023-05-17T23:59:58.435Z,102014.00
